Fredensborg, Denmark
Current Conditions -  °F | °C
As of 10:20 PM on Friday 19 Dec 2014 (Local Time) from EKCH Reporting Station
Few Clouds Few Clouds  
Wind Chill: 32°   Ceiling: Unl
Heat Index: 41°   Visibility: 6mi
Dew Point: 36°   Wind: 18mph
Humidity: 81%   Direction: 250°WSW
Pressure: 29.53"   Gusts: NA
Location:  55.97°N, 12.4°E
Report Text: EKCH 192120Z 25016KT 9999 FEW034 05/02 Q1000 TEMPO SCT020CB
Loading
Personal Weather Stations






























Interactive Weather Map New forecast layout! Learn more

10-Day Weather Forecast

Advertisements
Track Severe Weather on mobile